createdAt,value
2017-09-25T00:00:44.181Z,73.99
2017-09-25T00:01:41.431Z,74.00
2017-09-25T00:02:38.969Z,74.01
2017-09-25T00:03:36.217Z,74.05
2017-09-25T00:04:33.469Z,74.07
2017-09-25T00:05:30.737Z,74.05
2017-09-25T00:06:27.957Z,74.10
2017-09-25T00:07:25.198Z,74.09
2017-09-25T00:08:22.409Z,74.07
2017-09-25T00:09:19.685Z,74.07
2017-09-25T00:10:16.918Z,74.09
2017-09-25T00:11:14.247Z,74.09
2017-09-25T00:12:11.474Z,74.08
2017-09-25T00:13:08.722Z,74.08
2017-09-25T00:14:05.991Z,74.09
2017-09-25T00:15:03.255Z,74.10
2017-09-25T00:16:00.485Z,74.08
2017-09-25T00:16:57.738Z,74.10
2017-09-25T00:17:54.950Z,74.11
2017-09-25T00:18:52.236Z,74.13
2017-09-25T00:19:49.493Z,74.14
2017-09-25T00:20:46.789Z,74.12
2017-09-25T00:21:44.018Z,74.14
2017-09-25T00:22:41.261Z,74.14
2017-09-25T00:23:38.485Z,74.14
2017-09-25T00:24:35.766Z,74.13
2017-09-25T00:25:32.998Z,74.18
2017-09-25T00:26:30.258Z,74.18
2017-09-25T00:27:27.554Z,74.18
2017-09-25T00:28:24.809Z,74.18
2017-09-25T00:29:22.074Z,74.19
2017-09-25T00:30:19.322Z,74.19
2017-09-25T00:31:16.559Z,74.20
2017-09-25T00:32:13.811Z,74.21
2017-09-25T00:33:11.044Z,74.21
2017-09-25T00:34:08.765Z,74.22
2017-09-25T00:35:06.648Z,74.21
2017-09-25T00:36:03.901Z,74.24
2017-09-25T00:37:03.178Z,74.25
2017-09-25T00:38:00.434Z,74.26
2017-09-25T00:38:57.675Z,74.26
2017-09-25T00:39:54.947Z,74.28
2017-09-25T00:40:52.190Z,74.30
2017-09-25T00:41:49.431Z,74.27
2017-09-25T00:42:46.645Z,74.30
2017-09-25T00:43:43.918Z,74.31
2017-09-25T00:44:41.156Z,74.30
2017-09-25T00:45:38.406Z,74.32
2017-09-25T00:46:35.626Z,74.31
2017-09-25T00:47:32.880Z,74.32
2017-09-25T00:48:30.095Z,74.34
2017-09-25T00:49:27.366Z,74.35
2017-09-25T00:50:24.629Z,74.35
2017-09-25T00:51:21.888Z,74.35
2017-09-25T00:52:19.109Z,74.34
2017-09-25T00:53:16.356Z,74.36
2017-09-25T00:54:13.594Z,74.35
2017-09-25T00:55:10.870Z,74.38
2017-09-25T00:56:08.122Z,74.37
2017-09-25T00:57:05.374Z,74.37
2017-09-25T00:58:02.625Z,74.41
2017-09-25T00:58:59.873Z,74.41
2017-09-25T00:59:57.147Z,74.41
2017-09-25T01:00:54.420Z,74.44
2017-09-25T01:01:51.708Z,74.45
2017-09-25T01:02:49.017Z,74.45
2017-09-25T01:03:46.251Z,74.45
2017-09-25T01:04:45.575Z,74.46
2017-09-25T01:05:42.850Z,74.47
2017-09-25T01:06:40.122Z,74.49
2017-09-25T01:07:37.364Z,74.49
2017-09-25T01:08:34.783Z,74.49
2017-09-25T01:09:32.002Z,74.51
2017-09-25T01:10:29.385Z,74.50
2017-09-25T01:11:26.761Z,74.50
2017-09-25T01:12:24.198Z,74.52
2017-09-25T01:13:21.416Z,74.50
2017-09-25T01:14:18.671Z,74.52
2017-09-25T01:15:15.961Z,74.53
2017-09-25T01:16:13.230Z,74.53
2017-09-25T01:17:10.449Z,74.55
2017-09-25T01:18:07.711Z,74.56
2017-09-25T01:19:04.989Z,74.56
2017-09-25T01:20:02.250Z,74.56
2017-09-25T01:20:59.481Z,74.57
2017-09-25T01:21:56.754Z,74.59
2017-09-25T01:22:54.513Z,74.60
2017-09-25T01:23:51.817Z,74.59
2017-09-25T01:24:51.103Z,74.60
2017-09-25T01:25:48.367Z,74.62
2017-09-25T01:26:45.606Z,74.65
2017-09-25T01:27:44.914Z,74.65
2017-09-25T01:28:42.151Z,74.64
2017-09-25T01:29:39.405Z,74.64
2017-09-25T01:30:36.650Z,74.64
2017-09-25T01:31:33.909Z,74.64
2017-09-25T01:32:31.169Z,74.64
2017-09-25T01:33:28.413Z,74.66
2017-09-25T01:34:25.621Z,74.66
2017-09-25T01:35:22.885Z,74.65
2017-09-25T01:36:20.139Z,74.65
2017-09-25T01:37:17.390Z,74.66
2017-09-25T01:38:14.616Z,74.67
2017-09-25T01:39:11.867Z,74.67
2017-09-25T01:40:09.101Z,74.68
2017-09-25T01:41:06.357Z,74.68
2017-09-25T01:42:03.605Z,74.69
2017-09-25T01:43:00.910Z,74.71
2017-09-25T01:43:58.145Z,74.71
2017-09-25T01:44:55.399Z,74.71
2017-09-25T01:45:52.641Z,74.71
2017-09-25T01:46:49.921Z,74.72
2017-09-25T01:47:47.144Z,74.73
2017-09-25T01:48:44.394Z,74.74
2017-09-25T01:49:41.675Z,74.75
2017-09-25T01:50:38.926Z,74.73
2017-09-25T01:51:36.149Z,74.74
2017-09-25T01:52:33.378Z,74.76
2017-09-25T01:53:30.602Z,74.74
2017-09-25T01:54:27.838Z,74.76
2017-09-25T01:55:25.074Z,74.75
2017-09-25T01:56:22.323Z,74.75
2017-09-25T01:57:19.549Z,74.77
2017-09-25T01:58:16.809Z,74.79
2017-09-25T01:59:14.034Z,74.80
2017-09-25T02:00:11.281Z,74.82
2017-09-25T02:01:08.512Z,74.82
2017-09-25T02:02:05.790Z,74.81
2017-09-25T02:03:03.027Z,74.83
2017-09-25T02:04:00.283Z,74.82
2017-09-25T02:04:57.498Z,74.83
2017-09-25T02:05:54.750Z,74.83
2017-09-25T02:06:54.050Z,74.85
2017-09-25T02:07:51.282Z,74.85
2017-09-25T02:08:48.525Z,74.86
2017-09-25T02:09:45.762Z,74.86
2017-09-25T02:10:42.981Z,74.87
2017-09-25T02:11:40.254Z,74.88
2017-09-25T02:12:37.491Z,74.87
2017-09-25T02:13:34.722Z,74.90
2017-09-25T02:14:31.960Z,74.87
2017-09-25T02:15:29.209Z,74.89
2017-09-25T02:16:26.413Z,74.90
2017-09-25T02:17:23.669Z,74.91
2017-09-25T02:18:20.886Z,74.90
2017-09-25T02:19:18.166Z,74.89
2017-09-25T02:20:15.384Z,74.91
2017-09-25T02:21:12.625Z,74.94
2017-09-25T02:22:09.878Z,74.94
2017-09-25T02:23:07.111Z,74.96
2017-09-25T02:24:04.523Z,74.97
2017-09-25T02:25:01.757Z,74.98
2017-09-25T02:25:59.005Z,74.97
2017-09-25T02:26:56.237Z,75.00
2017-09-25T02:27:53.462Z,75.00
2017-09-25T02:28:50.718Z,75.02
2017-09-25T02:29:47.941Z,75.03
2017-09-25T02:30:45.190Z,75.03
2017-09-25T02:31:42.422Z,75.03
2017-09-25T02:32:39.679Z,75.01
2017-09-25T02:33:36.889Z,75.03
2017-09-25T02:34:34.141Z,75.04
2017-09-25T02:35:31.362Z,75.03
2017-09-25T02:36:28.681Z,75.04
2017-09-25T02:37:25.938Z,75.05
2017-09-25T02:38:23.179Z,75.02
2017-09-25T02:39:20.441Z,75.02
2017-09-25T02:40:17.686Z,75.02
2017-09-25T02:41:14.893Z,75.02
2017-09-25T02:42:12.223Z,75.05
2017-09-25T02:43:09.488Z,75.05
2017-09-25T02:44:06.734Z,75.06
2017-09-25T02:45:03.972Z,75.06
2017-09-25T02:46:01.217Z,75.07
2017-09-25T02:46:58.425Z,75.06
2017-09-25T02:47:55.685Z,75.07
2017-09-25T02:48:52.899Z,75.09
2017-09-25T02:49:50.153Z,75.08
2017-09-25T02:50:47.357Z,75.10
2017-09-25T02:51:44.614Z,75.10
2017-09-25T02:52:41.842Z,75.11
2017-09-25T02:53:39.094Z,75.11
2017-09-25T02:54:36.309Z,75.13
2017-09-25T02:55:33.670Z,75.12
2017-09-25T02:56:30.902Z,75.13
2017-09-25T02:57:28.168Z,75.13
2017-09-25T02:58:25.410Z,75.14
2017-09-25T02:59:22.668Z,75.14
2017-09-25T03:00:19.868Z,75.15
2017-09-25T03:01:17.104Z,75.14
2017-09-25T03:02:14.314Z,75.17
2017-09-25T03:03:11.584Z,75.16
2017-09-25T03:04:08.799Z,75.19
2017-09-25T03:05:06.037Z,75.21
2017-09-25T03:06:03.629Z,75.25
2017-09-25T03:07:00.872Z,75.23
2017-09-25T03:07:58.101Z,75.22
2017-09-25T03:08:55.382Z,75.23
2017-09-25T03:09:52.601Z,75.23
2017-09-25T03:10:49.849Z,75.22
2017-09-25T03:11:47.067Z,75.24
2017-09-25T03:12:44.349Z,75.24
2017-09-25T03:13:41.594Z,75.24
2017-09-25T03:14:38.841Z,75.22
2017-09-25T03:15:36.075Z,75.24
2017-09-25T03:16:33.324Z,75.26
2017-09-25T03:17:30.565Z,75.27
2017-09-25T03:18:27.847Z,75.28
2017-09-25T03:19:25.073Z,75.28
2017-09-25T03:20:22.333Z,75.30
2017-09-25T03:21:19.559Z,75.31
2017-09-25T03:22:16.811Z,75.31
2017-09-25T03:23:14.069Z,75.32
2017-09-25T03:24:11.324Z,75.31
2017-09-25T03:25:08.546Z,75.32
2017-09-25T03:26:06.690Z,75.33
2017-09-25T03:27:03.910Z,75.36
2017-09-25T03:28:01.169Z,75.37
2017-09-25T03:28:58.443Z,75.37
2017-09-25T03:29:55.661Z,75.37
2017-09-25T03:30:52.875Z,75.39
2017-09-25T03:31:50.123Z,75.40
2017-09-25T03:32:47.360Z,75.39
2017-09-25T03:33:44.601Z,75.42
2017-09-25T03:34:41.860Z,75.43
2017-09-25T03:35:39.157Z,75.46
2017-09-25T03:36:36.414Z,75.46
2017-09-25T03:37:33.719Z,75.50
2017-09-25T03:38:31.010Z,75.52
2017-09-25T03:39:28.293Z,75.54
2017-09-25T03:40:25.499Z,75.55
2017-09-25T03:41:22.767Z,75.56
2017-09-25T03:42:19.998Z,75.58
2017-09-25T03:43:17.301Z,75.60
2017-09-25T03:44:14.534Z,75.61
2017-09-25T03:45:11.776Z,75.62
2017-09-25T03:46:09.016Z,75.63
2017-09-25T03:47:06.300Z,75.64
2017-09-25T03:48:03.505Z,75.66
2017-09-25T03:49:00.810Z,75.67
2017-09-25T03:49:58.044Z,75.68
2017-09-25T03:50:55.498Z,75.72
2017-09-25T03:51:52.826Z,75.70
2017-09-25T03:52:50.117Z,75.72
2017-09-25T03:53:47.334Z,75.74
2017-09-25T03:54:44.618Z,75.74
2017-09-25T03:55:41.847Z,75.76
2017-09-25T03:56:39.089Z,75.78
2017-09-25T03:57:36.320Z,75.78
2017-09-25T03:58:33.562Z,75.81
2017-09-25T03:59:30.805Z,75.82
2017-09-25T04:00:28.061Z,75.84
2017-09-25T04:01:25.280Z,75.85
2017-09-25T04:02:22.526Z,75.87
2017-09-25T04:03:19.762Z,75.91
2017-09-25T04:04:17.046Z,75.91
2017-09-25T04:05:14.274Z,75.93
2017-09-25T04:06:13.565Z,75.93
2017-09-25T04:07:10.773Z,75.97
2017-09-25T04:08:08.024Z,75.96
2017-09-25T04:09:07.381Z,75.99
2017-09-25T04:10:04.665Z,76.03
2017-09-25T04:11:01.901Z,76.04
2017-09-25T04:11:59.158Z,76.06
2017-09-25T04:12:56.389Z,76.07
2017-09-25T04:13:53.626Z,76.08
2017-09-25T04:14:50.873Z,76.09
2017-09-25T04:15:48.184Z,76.09
2017-09-25T04:16:45.512Z,76.12
2017-09-25T04:17:42.774Z,76.11
2017-09-25T04:18:39.993Z,76.13
2017-09-25T04:19:37.237Z,76.13
2017-09-25T04:20:34.481Z,76.14
2017-09-25T04:21:31.745Z,76.15
2017-09-25T04:22:28.968Z,76.15
2017-09-25T04:23:26.226Z,76.18
2017-09-25T04:24:23.430Z,76.21
2017-09-25T04:25:20.691Z,76.21
2017-09-25T04:26:17.978Z,76.23
2017-09-25T04:27:15.247Z,76.23
2017-09-25T04:28:12.490Z,76.23
2017-09-25T04:29:09.842Z,76.26
2017-09-25T04:30:07.077Z,76.25
2017-09-25T04:31:04.326Z,76.29
2017-09-25T04:32:01.546Z,76.26
2017-09-25T04:32:58.806Z,76.29
2017-09-25T04:33:56.030Z,76.31
2017-09-25T04:34:53.274Z,76.30
2017-09-25T04:35:52.575Z,76.30
2017-09-25T04:36:49.816Z,76.31
2017-09-25T04:37:47.045Z,76.34
2017-09-25T04:38:44.297Z,76.38
2017-09-25T04:39:41.507Z,76.40
2017-09-25T04:40:38.782Z,76.43
2017-09-25T04:41:36.797Z,76.41
2017-09-25T04:42:34.417Z,76.42
2017-09-25T04:43:31.645Z,76.44
2017-09-25T04:44:29.136Z,76.45
2017-09-25T04:45:26.361Z,76.48
2017-09-25T04:46:23.600Z,76.52
2017-09-25T04:47:20.817Z,76.53
2017-09-25T04:48:18.065Z,76.54
2017-09-25T04:49:15.287Z,76.56
2017-09-25T04:50:12.530Z,76.58
2017-09-25T04:51:09.770Z,76.61
2017-09-25T04:52:07.673Z,76.63
2017-09-25T04:53:04.885Z,76.64
2017-09-25T04:54:02.128Z,76.67
2017-09-25T04:54:59.349Z,76.67
2017-09-25T04:55:56.617Z,76.72
2017-09-25T04:56:53.833Z,76.72
2017-09-25T04:57:51.070Z,76.74
2017-09-25T04:58:48.287Z,76.77
2017-09-25T04:59:45.526Z,76.78
2017-09-25T05:00:42.831Z,76.80
2017-09-25T05:01:40.073Z,76.81
2017-09-25T05:02:37.288Z,76.83
2017-09-25T05:03:34.533Z,76.87
2017-09-25T05:04:31.766Z,76.89
2017-09-25T05:05:29.006Z,76.89
2017-09-25T05:06:26.939Z,76.90
2017-09-25T05:07:24.173Z,76.95
2017-09-25T05:08:21.427Z,76.95
2017-09-25T05:09:18.704Z,76.95
2017-09-25T05:10:15.932Z,76.97
2017-09-25T05:11:13.226Z,76.98
2017-09-25T05:12:10.437Z,77.00
2017-09-25T05:13:08.344Z,77.03
2017-09-25T05:14:06.101Z,77.04
2017-09-25T05:15:03.333Z,77.06
2017-09-25T05:16:00.537Z,77.09
2017-09-25T05:16:57.794Z,77.14
2017-09-25T05:17:54.998Z,77.15
2017-09-25T05:18:52.246Z,77.17
2017-09-25T05:19:49.480Z,77.16
2017-09-25T05:20:46.730Z,77.19
2017-09-25T05:21:43.975Z,77.17
2017-09-25T05:22:41.213Z,77.16
2017-09-25T05:23:38.454Z,77.18
2017-09-25T05:24:35.698Z,77.20
2017-09-25T05:25:32.910Z,77.21
2017-09-25T05:26:30.175Z,77.25
2017-09-25T05:27:28.299Z,77.25
2017-09-25T05:28:25.553Z,77.25
2017-09-25T05:29:22.787Z,77.29
2017-09-25T05:30:20.033Z,77.28
2017-09-25T05:31:17.260Z,77.31
2017-09-25T05:32:14.514Z,77.31
2017-09-25T05:33:11.734Z,77.33
2017-09-25T05:34:08.978Z,77.36
2017-09-25T05:35:06.206Z,77.38
2017-09-25T05:36:03.454Z,77.39
2017-09-25T05:37:00.709Z,77.40
2017-09-25T05:37:57.955Z,77.41
2017-09-25T05:38:55.200Z,77.44
2017-09-25T05:39:52.447Z,77.45
2017-09-25T05:40:49.681Z,77.47
2017-09-25T05:41:46.959Z,77.48
2017-09-25T05:42:44.170Z,77.49
2017-09-25T05:43:41.446Z,77.50
2017-09-25T05:44:38.690Z,77.49
2017-09-25T05:45:35.942Z,77.49
2017-09-25T05:46:33.161Z,77.50
2017-09-25T05:47:30.429Z,77.52
2017-09-25T05:48:27.669Z,77.53
2017-09-25T05:49:24.921Z,77.52
2017-09-25T05:50:22.162Z,77.55
2017-09-25T05:51:19.420Z,77.55
2017-09-25T05:52:16.659Z,77.55
2017-09-25T05:53:13.918Z,77.56
2017-09-25T05:54:11.125Z,77.58
2017-09-25T05:55:08.374Z,77.58
2017-09-25T05:56:05.605Z,77.61
2017-09-25T05:57:02.873Z,77.61
2017-09-25T05:58:00.097Z,77.62
2017-09-25T05:58:57.353Z,77.63
2017-09-25T05:59:54.574Z,77.62
2017-09-25T06:00:51.825Z,77.65
2017-09-25T06:01:49.061Z,77.68
2017-09-25T06:02:46.310Z,77.66
2017-09-25T06:03:43.562Z,77.68
2017-09-25T06:04:40.875Z,77.69
2017-09-25T06:05:38.105Z,77.70
2017-09-25T06:06:35.340Z,77.70
2017-09-25T06:07:32.569Z,77.72
2017-09-25T06:08:29.842Z,77.74
2017-09-25T06:09:27.090Z,77.74
2017-09-25T06:10:24.329Z,77.76
2017-09-25T06:11:21.549Z,77.76
2017-09-25T06:12:18.793Z,77.80
2017-09-25T06:13:16.029Z,77.81
2017-09-25T06:14:13.321Z,77.81
2017-09-25T06:15:12.610Z,77.83
2017-09-25T06:16:09.860Z,77.82
2017-09-25T06:17:07.084Z,77.86
2017-09-25T06:18:04.343Z,77.88
2017-09-25T06:19:01.594Z,77.88
2017-09-25T06:19:58.834Z,77.90
2017-09-25T06:20:56.066Z,77.91
2017-09-25T06:21:53.321Z,77.91
2017-09-25T06:22:50.553Z,77.93
2017-09-25T06:23:48.009Z,77.93
2017-09-25T06:24:45.249Z,77.96
2017-09-25T06:25:42.554Z,77.97
2017-09-25T06:26:39.778Z,77.97
2017-09-25T06:27:37.038Z,77.98
2017-09-25T06:28:34.266Z,77.99
2017-09-25T06:29:31.535Z,78.01
2017-09-25T06:30:28.770Z,78.01
2017-09-25T06:31:26.038Z,78.02
2017-09-25T06:32:23.253Z,78.03
2017-09-25T06:33:20.525Z,78.04
2017-09-25T06:34:17.774Z,78.05
2017-09-25T06:35:15.028Z,78.08
2017-09-25T06:36:12.241Z,78.09
2017-09-25T06:37:09.574Z,78.12
2017-09-25T06:38:06.791Z,78.12
2017-09-25T06:39:04.070Z,78.13
2017-09-25T06:40:01.294Z,78.17
2017-09-25T06:40:58.533Z,78.16
2017-09-25T06:41:55.774Z,78.17
2017-09-25T06:42:53.017Z,78.19
2017-09-25T06:43:50.246Z,78.19
2017-09-25T06:44:47.510Z,78.20
2017-09-25T06:45:44.726Z,78.23
2017-09-25T06:46:41.994Z,78.23
2017-09-25T06:47:39.206Z,78.27
2017-09-25T06:48:36.445Z,78.28
2017-09-25T06:49:33.698Z,78.30
2017-09-25T06:50:30.970Z,78.31
2017-09-25T06:51:28.187Z,78.33
2017-09-25T06:52:25.441Z,78.34
2017-09-25T06:53:22.692Z,78.38
2017-09-25T06:54:19.950Z,78.38
2017-09-25T06:55:17.190Z,78.39
2017-09-25T06:56:14.438Z,78.43
2017-09-25T06:57:11.688Z,78.45
2017-09-25T06:58:08.949Z,78.49
2017-09-25T06:59:06.178Z,78.51
2017-09-25T07:00:03.487Z,78.52
2017-09-25T07:01:00.714Z,78.55
2017-09-25T07:01:57.961Z,78.63
2017-09-25T07:02:55.209Z,78.69
2017-09-25T07:03:52.485Z,78.75
2017-09-25T07:04:49.778Z,78.80
2017-09-25T07:05:47.081Z,78.85
2017-09-25T07:06:44.304Z,78.87
2017-09-25T07:07:41.561Z,78.91
2017-09-25T07:08:38.787Z,78.90
2017-09-25T07:09:36.093Z,78.92
2017-09-25T07:10:33.334Z,78.96
2017-09-25T07:11:30.707Z,78.97
2017-09-25T07:12:27.939Z,79.01
2017-09-25T07:13:25.199Z,79.05
2017-09-25T07:14:22.421Z,79.04
2017-09-25T07:15:19.694Z,79.05
2017-09-25T07:16:16.946Z,79.05
2017-09-25T07:17:14.201Z,79.08
2017-09-25T07:18:11.446Z,79.10
2017-09-25T07:19:09.168Z,79.09
2017-09-25T07:20:06.423Z,79.12
2017-09-25T07:21:03.673Z,79.16
2017-09-25T07:22:00.917Z,79.19
2017-09-25T07:22:58.370Z,79.18
2017-09-25T07:23:55.634Z,79.20
2017-09-25T07:24:52.932Z,79.25
2017-09-25T07:25:50.162Z,79.26
2017-09-25T07:26:47.450Z,79.27
2017-09-25T07:27:44.803Z,79.30
2017-09-25T07:28:42.231Z,79.29
2017-09-25T07:29:39.484Z,79.30
2017-09-25T07:30:36.843Z,79.33
2017-09-25T07:31:34.148Z,79.38
2017-09-25T07:32:31.587Z,79.38
2017-09-25T07:33:28.831Z,79.44
2017-09-25T07:34:26.193Z,79.46
2017-09-25T07:35:23.617Z,79.48
2017-09-25T07:36:21.787Z,79.53
2017-09-25T07:37:19.850Z,79.57
2017-09-25T07:38:17.103Z,79.58
2017-09-25T07:39:15.469Z,79.62
2017-09-25T07:40:12.825Z,79.67
2017-09-25T07:41:11.579Z,79.71
2017-09-25T07:42:08.830Z,79.75
2017-09-25T07:43:06.049Z,79.82
2017-09-25T07:44:03.341Z,79.88
2017-09-25T07:45:00.568Z,79.93
2017-09-25T07:45:57.987Z,79.98
2017-09-25T07:46:55.335Z,80.03
2017-09-25T07:47:53.181Z,80.06
2017-09-25T07:48:50.411Z,80.09
2017-09-25T07:49:47.655Z,80.16
2017-09-25T07:50:44.906Z,80.19
2017-09-25T07:51:42.153Z,80.22
2017-09-25T07:52:39.390Z,80.26
2017-09-25T07:53:36.667Z,80.29
2017-09-25T07:54:33.924Z,80.31
2017-09-25T07:55:31.290Z,80.34
2017-09-25T07:56:28.862Z,80.36
2017-09-25T07:57:26.105Z,80.40
2017-09-25T07:58:23.346Z,80.42
2017-09-25T07:59:20.589Z,80.44
2017-09-25T08:00:17.805Z,80.48
2017-09-25T08:01:15.072Z,80.51
2017-09-25T08:02:12.320Z,80.56
2017-09-25T08:03:09.641Z,80.58
2017-09-25T08:04:07.154Z,80.63
2017-09-25T08:05:04.396Z,80.65
2017-09-25T08:06:01.626Z,80.71
2017-09-25T08:06:58.981Z,80.77
2017-09-25T08:07:56.193Z,80.78
2017-09-25T08:08:53.449Z,80.83
2017-09-25T08:09:50.675Z,80.84
2017-09-25T08:10:47.971Z,80.88
2017-09-25T08:11:45.202Z,80.91
2017-09-25T08:12:42.458Z,80.95
2017-09-25T08:13:39.686Z,80.99
2017-09-25T08:14:36.977Z,81.03
2017-09-25T08:15:34.185Z,81.09
2017-09-25T08:16:31.433Z,81.10
2017-09-25T08:17:28.890Z,81.12
2017-09-25T08:18:26.150Z,81.15
2017-09-25T08:19:23.389Z,81.18
2017-09-25T08:20:20.706Z,81.21
2017-09-25T08:21:17.941Z,81.28
2017-09-25T08:22:15.188Z,81.29
2017-09-25T08:23:12.410Z,81.34
2017-09-25T08:24:09.649Z,81.36
2017-09-25T08:25:06.845Z,81.35
2017-09-25T08:26:04.073Z,81.39
2017-09-25T08:27:01.323Z,81.42
2017-09-25T08:27:58.573Z,81.44
2017-09-25T08:28:55.809Z,81.44
2017-09-25T08:29:53.061Z,81.49
2017-09-25T08:30:50.281Z,81.52
2017-09-25T08:31:47.660Z,81.52
2017-09-25T08:32:44.881Z,81.57
2017-09-25T08:33:42.129Z,81.58
2017-09-25T08:34:39.350Z,81.63
2017-09-25T08:35:36.591Z,81.61
2017-09-25T08:36:33.833Z,81.65
2017-09-25T08:37:31.069Z,81.69
2017-09-25T08:38:28.323Z,81.69
2017-09-25T08:39:25.567Z,81.71
2017-09-25T08:40:22.801Z,81.74
2017-09-25T08:41:20.351Z,81.73
2017-09-25T08:42:17.589Z,81.77
2017-09-25T08:43:14.833Z,81.76
2017-09-25T08:44:12.062Z,81.79
2017-09-25T08:45:09.313Z,81.80
2017-09-25T08:46:06.533Z,81.81
2017-09-25T08:47:03.797Z,81.82
2017-09-25T08:48:01.448Z,81.83
2017-09-25T08:48:58.699Z,81.86
2017-09-25T08:49:55.938Z,81.85
2017-09-25T08:50:53.185Z,81.89
2017-09-25T08:51:50.424Z,81.89
2017-09-25T08:52:47.673Z,81.92
2017-09-25T08:53:44.894Z,81.93
2017-09-25T08:54:42.154Z,81.93
2017-09-25T08:55:39.378Z,81.96
2017-09-25T08:56:36.655Z,81.98
2017-09-25T08:57:33.866Z,82.01
2017-09-25T08:58:31.126Z,82.02
2017-09-25T08:59:28.427Z,82.09
2017-09-25T09:00:25.702Z,82.11
2017-09-25T09:01:22.918Z,82.11
2017-09-25T09:02:20.176Z,82.17
2017-09-25T09:03:17.401Z,82.17
2017-09-25T09:04:14.743Z,82.16
2017-09-25T09:05:11.959Z,82.23
2017-09-25T09:06:09.202Z,82.24
2017-09-25T09:07:06.451Z,82.28
2017-09-25T09:08:03.697Z,82.31
2017-09-25T09:09:00.944Z,82.35
2017-09-25T09:09:58.270Z,82.36
2017-09-25T09:10:55.506Z,82.36
2017-09-25T09:11:52.787Z,82.37
2017-09-25T09:12:50.010Z,82.40
2017-09-25T09:13:47.325Z,82.41
2017-09-25T09:14:44.566Z,82.49
2017-09-25T09:15:41.821Z,82.49
2017-09-25T09:16:39.061Z,82.54
2017-09-25T09:17:36.448Z,82.54
2017-09-25T09:18:33.682Z,82.57
2017-09-25T09:19:30.940Z,82.61
2017-09-25T09:20:28.194Z,82.65
2017-09-25T09:21:25.474Z,82.67
2017-09-25T09:22:22.735Z,82.70
2017-09-25T09:23:19.973Z,82.70
2017-09-25T09:24:17.182Z,82.74
2017-09-25T09:25:14.446Z,82.75
2017-09-25T09:26:11.653Z,82.77
2017-09-25T09:27:08.914Z,82.78
2017-09-25T09:28:06.158Z,82.80
2017-09-25T09:29:03.414Z,82.85
2017-09-25T09:30:00.652Z,82.87
2017-09-25T09:30:57.922Z,82.88
2017-09-25T09:31:55.138Z,82.92
2017-09-25T09:32:52.399Z,82.98
2017-09-25T09:33:49.615Z,83.01
2017-09-25T09:34:46.866Z,83.01
2017-09-25T09:35:44.107Z,83.07
2017-09-25T09:36:41.362Z,83.08
2017-09-25T09:37:38.622Z,83.10
2017-09-25T09:38:35.865Z,83.14
2017-09-25T09:39:33.081Z,83.15
2017-09-25T09:40:30.620Z,83.17
2017-09-25T09:41:28.285Z,83.19
2017-09-25T09:42:26.002Z,83.22
2017-09-25T09:43:23.673Z,83.23
2017-09-25T09:44:21.397Z,83.28
2017-09-25T09:45:19.053Z,83.30
2017-09-25T09:46:16.716Z,83.33
2017-09-25T09:47:14.225Z,83.30
2017-09-25T09:48:11.503Z,83.33
2017-09-25T09:49:08.748Z,83.38
2017-09-25T09:50:05.995Z,83.40
2017-09-25T09:51:03.209Z,83.42
2017-09-25T09:52:00.458Z,83.46
2017-09-25T09:52:57.691Z,83.48
2017-09-25T09:53:54.962Z,83.51
2017-09-25T09:54:52.170Z,83.54
2017-09-25T09:55:49.414Z,83.59
2017-09-25T09:56:46.626Z,83.60
2017-09-25T09:57:43.878Z,83.67
2017-09-25T09:58:41.185Z,83.66
2017-09-25T09:59:38.427Z,83.70
2017-09-25T10:00:35.653Z,83.71
2017-09-25T10:01:32.899Z,83.73
2017-09-25T10:02:30.139Z,83.74
2017-09-25T10:03:27.426Z,83.78
2017-09-25T10:04:24.654Z,83.77
2017-09-25T10:05:22.082Z,83.80
2017-09-25T10:06:19.302Z,83.83
2017-09-25T10:07:16.558Z,83.84
2017-09-25T10:08:13.807Z,83.87
2017-09-25T10:09:11.069Z,83.87
2017-09-25T10:10:08.280Z,83.88
2017-09-25T10:11:05.542Z,83.91
2017-09-25T10:12:02.764Z,83.91
2017-09-25T10:13:05.250Z,83.93
2017-09-25T10:14:02.573Z,83.95
2017-09-25T10:14:59.810Z,83.96
2017-09-25T10:15:57.129Z,83.99
2017-09-25T10:16:54.354Z,84.02
2017-09-25T10:17:51.605Z,83.98
2017-09-25T10:18:48.858Z,83.99
2017-09-25T10:19:46.102Z,83.97
2017-09-25T10:20:43.310Z,83.98
2017-09-25T10:21:40.561Z,83.99
2017-09-25T10:22:37.778Z,84.01
2017-09-25T10:23:35.106Z,84.02
2017-09-25T10:24:32.350Z,84.06
2017-09-25T10:25:29.598Z,84.10
2017-09-25T10:26:26.826Z,84.15
2017-09-25T10:27:24.053Z,84.18
2017-09-25T10:28:21.262Z,84.21
2017-09-25T10:29:18.540Z,84.20
2017-09-25T10:30:15.773Z,84.23
2017-09-25T10:31:13.009Z,84.28
2017-09-25T10:32:10.241Z,84.24
2017-09-25T10:33:07.587Z,84.29
2017-09-25T10:34:04.841Z,84.30
2017-09-25T10:35:02.206Z,84.32
2017-09-25T10:35:59.446Z,84.35
2017-09-25T10:36:56.698Z,84.39
2017-09-25T10:37:53.910Z,84.43
2017-09-25T10:38:51.154Z,84.46
2017-09-25T10:39:48.384Z,84.50
2017-09-25T10:40:45.613Z,84.52
2017-09-25T10:41:42.829Z,84.54
2017-09-25T10:42:40.078Z,84.56
2017-09-25T10:43:37.302Z,84.53
2017-09-25T10:44:34.569Z,84.55
2017-09-25T10:45:31.834Z,84.57
2017-09-25T10:46:29.377Z,84.57
2017-09-25T10:47:26.593Z,84.58
2017-09-25T10:48:23.826Z,84.64
2017-09-25T10:49:21.063Z,84.67
2017-09-25T10:50:18.345Z,84.68
2017-09-25T10:51:15.589Z,84.71
2017-09-25T10:52:12.832Z,84.74
2017-09-25T10:53:10.068Z,84.81
2017-09-25T10:54:07.435Z,84.87
2017-09-25T10:55:04.699Z,84.96
2017-09-25T10:56:01.947Z,85.05
2017-09-25T10:56:59.182Z,85.08
2017-09-25T10:57:56.421Z,85.14
2017-09-25T10:58:53.646Z,85.17
2017-09-25T10:59:50.934Z,85.20
2017-09-25T11:00:48.154Z,85.16
2017-09-25T11:01:45.410Z,85.12
2017-09-25T11:02:42.618Z,85.09
2017-09-25T11:03:39.870Z,85.06
2017-09-25T11:04:37.126Z,85.07
2017-09-25T11:05:34.358Z,85.07
2017-09-25T11:06:31.575Z,85.05
2017-09-25T11:07:28.831Z,85.02
2017-09-25T11:08:26.084Z,84.99
2017-09-25T11:09:23.330Z,84.96
2017-09-25T11:10:20.573Z,84.93
2017-09-25T11:11:17.933Z,84.89
2017-09-25T11:12:15.162Z,84.87
2017-09-25T11:13:12.438Z,84.85
2017-09-25T11:14:09.685Z,84.80
2017-09-25T11:15:06.960Z,84.76
2017-09-25T11:16:04.210Z,84.75
2017-09-25T11:17:01.469Z,84.68
2017-09-25T11:17:58.686Z,84.66
2017-09-25T11:18:55.933Z,84.58
2017-09-25T11:19:53.165Z,84.52
2017-09-25T11:20:50.517Z,84.49
2017-09-25T11:21:47.770Z,84.44
2017-09-25T11:22:45.014Z,84.44
2017-09-25T11:23:42.217Z,84.45
2017-09-25T11:24:39.474Z,84.41
2017-09-25T11:25:36.715Z,84.27
2017-09-25T11:26:33.958Z,84.23
2017-09-25T11:27:31.181Z,84.21
2017-09-25T11:28:28.461Z,84.21
2017-09-25T11:29:25.689Z,84.23
2017-09-25T11:30:22.983Z,84.23
2017-09-25T11:31:20.246Z,84.22
2017-09-25T11:32:17.488Z,84.22
2017-09-25T11:33:14.709Z,84.18
2017-09-25T11:34:11.954Z,84.11
2017-09-25T11:35:09.166Z,84.06
2017-09-25T11:36:06.568Z,84.02
2017-09-25T11:37:03.800Z,83.96
2017-09-25T11:38:01.045Z,83.90
2017-09-25T11:38:58.292Z,83.79
2017-09-25T11:39:55.562Z,83.74
2017-09-25T11:40:52.844Z,83.70
2017-09-25T11:41:50.096Z,83.61
2017-09-25T11:42:47.314Z,83.59
2017-09-25T11:43:44.576Z,83.56
2017-09-25T11:44:41.796Z,83.50
2017-09-25T11:45:39.078Z,83.43
2017-09-25T11:46:36.309Z,83.41
2017-09-25T11:47:33.588Z,83.37
2017-09-25T11:48:30.813Z,83.33
2017-09-25T11:49:28.073Z,83.31
2017-09-25T11:50:25.333Z,83.26
2017-09-25T11:51:22.617Z,83.26
2017-09-25T11:52:19.845Z,83.26
2017-09-25T11:53:17.087Z,83.22
2017-09-25T11:54:14.331Z,83.20
2017-09-25T11:55:11.714Z,83.17
2017-09-25T11:56:08.975Z,83.18
2017-09-25T11:57:06.222Z,83.12
2017-09-25T11:58:03.461Z,83.05
2017-09-25T11:59:00.722Z,82.95
2017-09-25T11:59:57.982Z,82.88
2017-09-25T12:00:55.368Z,82.87
2017-09-25T12:01:52.604Z,82.80
2017-09-25T12:02:49.861Z,82.74
2017-09-25T12:03:47.104Z,82.62
2017-09-25T12:04:44.371Z,82.57
2017-09-25T12:05:41.618Z,82.54
2017-09-25T12:06:38.893Z,82.54
2017-09-25T12:07:36.162Z,82.45
2017-09-25T12:08:34.086Z,82.37
2017-09-25T12:09:31.327Z,82.34
2017-09-25T12:10:28.595Z,82.32
2017-09-25T12:11:25.834Z,82.25
2017-09-25T12:12:23.082Z,82.16
2017-09-25T12:13:20.290Z,82.14
2017-09-25T12:14:17.534Z,82.10
2017-09-25T12:15:14.798Z,82.00
2017-09-25T12:16:12.074Z,81.95
2017-09-25T12:17:09.320Z,81.96
2017-09-25T12:18:06.573Z,81.90